Time;durP1;ratioP1;P1;durP2;ratioP2;P2;SDS_P1;SDS_P2;PMS_P1;PMS_P2;Temp;Humidity;BMP_temperature;BMP_pressure;BME280_temperature;BME280_humidity;BME280_pressure;Samples;Min_cycle;Max_cycle;Signal;HPM_P1;HPM_P2
2022/01/26 00:07:18;;;;;;;;;;;3.80;99.90;;;;;;8385933;28;19928;-72
2022/01/26 00:11:20;;;;;;;;;;;3.80;99.90;;;;;;8392689;28;19964;-72
2022/01/26 00:15:30;;;;;;;;;;;3.80;99.90;;;;;;8370322;28;19967;-72
2022/01/26 00:19:42;;;;;;;;;;;3.80;99.90;;;;;;8392290;28;19952;-72
2022/01/26 00:24:10;;;;;;;;;;;3.90;99.90;;;;;;8388091;28;20443;-72
2022/01/26 00:28:31;;;;;;;;;;;3.90;99.90;;;;;;8381105;28;19936;-72
2022/01/26 00:41:14;;;;;;;;;;;3.80;99.90;;;;;;8386595;28;19924;-72
2022/01/26 00:45:21;;;;;;;;;;;3.80;99.90;;;;;;8382875;28;20011;-73
2022/01/26 00:49:23;;;;;;;;;;;3.80;99.90;;;;;;8392060;28;19932;-73
2022/01/26 00:53:30;;;;;;;;;;;3.80;99.90;;;;;;8379821;28;19970;-73
2022/01/26 00:57:32;;;;;;;;;;;3.80;99.90;;;;;;8365989;28;19967;-71
2022/01/26 01:01:34;;;;;;;;;;;3.80;99.90;;;;;;8379337;28;20034;-72
2022/01/26 01:05:43;;;;;;;;;;;3.80;99.90;;;;;;8389593;28;20338;-72
2022/01/26 01:09:44;;;;;;;;;;;3.80;99.90;;;;;;8383454;28;19933;-72
2022/01/26 01:13:47;;;;;;;;;;;3.80;99.90;;;;;;8390074;28;20016;-72
2022/01/26 01:17:53;;;;;;;;;;;3.80;99.90;;;;;;8369456;28;20365;-72
2022/01/26 01:22:19;;;;;;;;;;;3.70;99.90;;;;;;8378946;28;19935;-72
2022/01/26 01:26:41;;;;;;;;;;;3.70;99.90;;;;;;8392054;28;20284;-72
2022/01/26 01:30:45;;;;;;;;;;;3.70;99.90;;;;;;8394489;28;19924;-73
2022/01/26 01:34:47;;;;;;;;;;;3.70;99.90;;;;;;8390042;28;19979;-72
2022/01/26 01:38:49;;;;;;;;;;;3.80;99.90;;;;;;8388238;28;19978;-72
2022/01/26 01:42:50;;;;;;;;;;;3.80;99.90;;;;;;8389369;28;20094;-72
2022/01/26 01:46:53;;;;;;;;;;;3.80;99.90;;;;;;8390738;28;19979;-72
2022/01/26 01:50:56;;;;;;;;;;;3.80;99.90;;;;;;8395965;28;19925;-72
2022/01/26 01:55:03;;;;;;;;;;;3.80;99.90;;;;;;8396532;28;19987;-72
2022/01/26 01:59:05;;;;;;;;;;;3.70;99.90;;;;;;8393636;28;19925;-72
2022/01/26 02:03:06;;;;;;;;;;;3.80;99.90;;;;;;8379112;28;19978;-72
2022/01/26 02:07:10;;;;;;;;;;;3.70;99.90;;;;;;8380629;28;19929;-72
2022/01/26 02:11:13;;;;;;;;;;;3.70;99.90;;;;;;8387940;28;20018;-72
2022/01/26 02:15:23;;;;;;;;;;;3.70;99.90;;;;;;8382347;28;20173;-72
2022/01/26 02:19:53;;;;;;;;;;;3.70;99.90;;;;;;8386768;28;20015;-72
2022/01/26 02:50:11;;;;;;;;;;;3.60;99.90;;;;;;8384972;28;19975;-72
2022/01/26 02:59:33;;;;;;;;;;;3.60;99.90;;;;;;8386500;28;19932;-72
2022/01/26 03:07:39;;;;;;;;;;;3.60;99.90;;;;;;8377549;28;20020;-72
2022/01/26 03:11:15;;;;;;;;;;;3.60;99.90;;;;;;8381214;28;20394;-71
2022/01/26 03:15:23;;;;;;;;;;;3.60;99.90;;;;;;8367133;28;19960;-71
2022/01/26 03:19:38;;;;;;;;;;;3.70;99.90;;;;;;8385518;28;20384;-73
2022/01/26 03:28:25;;;;;;;;;;;3.70;99.90;;;;;;8286054;28;20344;-72
2022/01/26 03:36:42;;;;;;;;;;;3.60;99.90;;;;;;8388720;28;19972;-72
2022/01/26 03:40:44;;;;;;;;;;;3.60;99.90;;;;;;8390484;28;19971;-72
2022/01/26 03:44:46;;;;;;;;;;;3.70;99.90;;;;;;8388786;28;20011;-72
2022/01/26 03:48:47;;;;;;;;;;;3.60;99.90;;;;;;8386680;28;20008;-72
2022/01/26 03:52:49;;;;;;;;;;;3.70;99.90;;;;;;8387253;28;19968;-72
2022/01/26 03:56:50;;;;;;;;;;;3.70;99.90;;;;;;8398704;28;19968;-72
2022/01/26 04:00:52;;;;;;;;;;;3.70;99.90;;;;;;8367235;28;20058;-72
2022/01/26 04:04:59;;;;;;;;;;;3.70;99.90;;;;;;8380323;28;19963;-72
2022/01/26 04:09:02;;;;;;;;;;;3.70;99.90;;;;;;8391565;28;19924;-72
2022/01/26 04:13:04;;;;;;;;;;;3.60;99.90;;;;;;8388476;28;19964;-72
2022/01/26 04:17:08;;;;;;;;;;;3.60;99.90;;;;;;8387098;28;19979;-72
2022/01/26 04:25:30;;;;;;;;;;;3.70;99.90;;;;;;8379190;28;19963;-73
2022/01/26 04:29:33;;;;;;;;;;;3.70;99.90;;;;;;8368915;28;20388;-72
2022/01/26 04:33:35;;;;;;;;;;;3.70;99.90;;;;;;8398715;28;19924;-71
2022/01/26 04:45:52;;;;;;;;;;;3.70;99.90;;;;;;8364853;28;20304;-72
2022/01/26 04:49:54;;;;;;;;;;;3.70;99.90;;;;;;8364144;28;19928;-72
2022/01/26 04:53:56;;;;;;;;;;;3.60;99.90;;;;;;8372898;28;19979;-72
2022/01/26 04:57:58;;;;;;;;;;;3.60;99.90;;;;;;8390247;28;19924;-72
2022/01/26 05:01:59;;;;;;;;;;;3.50;99.90;;;;;;8385249;28;20007;-72
2022/01/26 05:06:01;;;;;;;;;;;3.50;99.90;;;;;;8390036;28;20388;-72
2022/01/26 05:10:03;;;;;;;;;;;3.50;99.90;;;;;;8395906;28;19971;-72
2022/01/26 05:14:05;;;;;;;;;;;3.50;99.90;;;;;;8394998;28;19931;-71
2022/01/26 05:18:07;;;;;;;;;;;3.50;99.90;;;;;;8389988;28;19978;-72
2022/01/26 05:22:09;;;;;;;;;;;3.50;99.90;;;;;;8390037;28;19972;-72
2022/01/26 05:26:11;;;;;;;;;;;3.50;99.90;;;;;;8376481;28;19982;-72
2022/01/26 05:30:12;;;;;;;;;;;3.50;99.90;;;;;;8393106;28;19935;-72
2022/01/26 05:34:14;;;;;;;;;;;3.40;99.90;;;;;;8375579;28;19932;-71
2022/01/26 05:38:15;;;;;;;;;;;3.40;99.90;;;;;;8374456;28;19932;-72
2022/01/26 05:42:17;;;;;;;;;;;3.40;99.90;;;;;;8392492;28;19968;-71
2022/01/26 05:46:33;;;;;;;;;;;3.40;99.90;;;;;;8388905;28;19971;-71
2022/01/26 05:50:35;;;;;;;;;;;3.40;99.90;;;;;;8386572;28;19925;-72
2022/01/26 05:54:37;;;;;;;;;;;3.40;99.90;;;;;;8392320;28;20007;-72
2022/01/26 05:58:38;;;;;;;;;;;3.30;99.90;;;;;;8378744;28;19931;-72
2022/01/26 06:02:40;;;;;;;;;;;3.40;99.90;;;;;;8382177;28;19945;-72
2022/01/26 06:06:41;;;;;;;;;;;3.40;99.90;;;;;;8393068;28;20332;-72
2022/01/26 06:10:43;;;;;;;;;;;3.40;99.90;;;;;;8394212;28;19970;-72
2022/01/26 06:14:45;;;;;;;;;;;3.40;99.90;;;;;;8381383;28;19960;-72
2022/01/26 06:18:47;;;;;;;;;;;3.40;99.90;;;;;;8377017;28;20271;-71
2022/01/26 06:22:48;;;;;;;;;;;3.40;99.90;;;;;;8387048;28;19964;-72
2022/01/26 06:26:50;;;;;;;;;;;3.30;99.90;;;;;;8383925;28;19964;-72
2022/01/26 06:30:55;;;;;;;;;;;3.30;99.90;;;;;;8369730;28;20019;-72
2022/01/26 06:34:57;;;;;;;;;;;3.30;99.90;;;;;;8371102;28;19928;-72
2022/01/26 06:38:59;;;;;;;;;;;3.30;99.90;;;;;;8390642;28;19971;-72
2022/01/26 06:43:05;;;;;;;;;;;3.20;99.90;;;;;;8394451;28;19947;-72
2022/01/26 06:51:12;;;;;;;;;;;3.20;99.90;;;;;;8382502;28;19924;-72
2022/01/26 06:55:14;;;;;;;;;;;3.20;99.90;;;;;;8363385;28;20384;-72
2022/01/26 06:59:16;;;;;;;;;;;3.20;99.90;;;;;;8390468;28;20352;-71
2022/01/26 07:03:18;;;;;;;;;;;3.20;99.90;;;;;;8378527;28;19925;-71
2022/01/26 07:07:19;;;;;;;;;;;3.30;99.90;;;;;;8388107;28;19932;-72
2022/01/26 07:11:21;;;;;;;;;;;3.30;99.90;;;;;;8390953;28;19970;-71
2022/01/26 07:19:52;;;;;;;;;;;3.30;99.90;;;;;;8385286;28;20027;-72
2022/01/26 07:23:55;;;;;;;;;;;3.30;99.90;;;;;;8382962;28;20372;-71
2022/01/26 07:27:58;;;;;;;;;;;3.30;99.90;;;;;;8368921;28;20038;-72
2022/01/26 07:31:59;;;;;;;;;;;3.30;99.90;;;;;;8371362;28;19990;-71
2022/01/26 07:36:01;;;;;;;;;;;3.40;99.90;;;;;;8387179;28;20376;-72
2022/01/26 07:40:09;;;;;;;;;;;3.40;99.90;;;;;;8391109;28;19924;-72
2022/01/26 07:44:11;;;;;;;;;;;3.40;99.90;;;;;;8384578;28;19932;-71
2022/01/26 07:48:12;;;;;;;;;;;3.50;99.90;;;;;;8383890;28;19931;-72
2022/01/26 07:52:14;;;;;;;;;;;3.50;99.90;;;;;;8370377;28;20380;-72
2022/01/26 07:56:16;;;;;;;;;;;3.50;99.90;;;;;;8368507;28;19964;-72
2022/01/26 08:00:19;;;;;;;;;;;3.60;99.90;;;;;;8385761;28;19924;-71
2022/01/26 08:04:20;;;;;;;;;;;3.60;99.90;;;;;;8366866;28;20014;-71
2022/01/26 08:08:22;;;;;;;;;;;3.60;99.90;;;;;;8388350;28;20298;-71
2022/01/26 08:12:24;;;;;;;;;;;3.70;99.90;;;;;;8387141;28;19960;-72
2022/01/26 08:16:45;;;;;;;;;;;3.70;99.90;;;;;;8372232;28;19986;-72
2022/01/26 08:20:46;;;;;;;;;;;3.70;99.90;;;;;;8397933;28;19924;-72
2022/01/26 08:24:49;;;;;;;;;;;3.80;99.90;;;;;;8368756;28;19931;-72
2022/01/26 08:28:55;;;;;;;;;;;3.80;99.90;;;;;;8387464;28;19932;-73
2022/01/26 08:32:56;;;;;;;;;;;3.80;99.90;;;;;;8387383;28;19981;-72
2022/01/26 08:36:58;;;;;;;;;;;3.90;99.90;;;;;;8395248;28;20010;-71
2022/01/26 08:41:00;;;;;;;;;;;3.80;99.90;;;;;;8391782;28;19960;-71
2022/01/26 08:45:01;;;;;;;;;;;3.80;99.90;;;;;;8393298;28;19928;-70
2022/01/26 08:49:04;;;;;;;;;;;3.90;99.90;;;;;;8389508;28;19932;-71
2022/01/26 08:53:06;;;;;;;;;;;3.90;99.90;;;;;;8387762;28;19960;-71
2022/01/26 08:57:07;;;;;;;;;;;3.90;99.90;;;;;;8397782;28;19971;-71
2022/01/26 09:01:09;;;;;;;;;;;4.00;99.90;;;;;;8373019;28;19931;-71
2022/01/26 09:05:11;;;;;;;;;;;4.00;99.90;;;;;;8373326;28;20057;-71
2022/01/26 09:09:12;;;;;;;;;;;4.00;99.90;;;;;;8384440;28;19924;-71
2022/01/26 09:13:14;;;;;;;;;;;4.00;99.90;;;;;;8401825;28;19924;-71
2022/01/26 09:17:16;;;;;;;;;;;4.00;99.90;;;;;;8374539;28;20384;-71
2022/01/26 09:21:18;;;;;;;;;;;4.00;99.90;;;;;;8377953;28;19943;-71
2022/01/26 09:25:20;;;;;;;;;;;4.00;99.90;;;;;;8391815;28;19966;-71
2022/01/26 09:29:21;;;;;;;;;;;4.00;99.90;;;;;;8375981;28;19935;-71
2022/01/26 09:33:23;;;;;;;;;;;4.00;99.90;;;;;;8390916;28;19925;-72
2022/01/26 09:37:25;;;;;;;;;;;4.10;99.90;;;;;;8382779;28;20440;-71
2022/01/26 09:41:27;;;;;;;;;;;4.10;99.90;;;;;;8386539;28;19982;-72
2022/01/26 09:45:34;;;;;;;;;;;4.10;99.90;;;;;;8385221;28;20402;-72
2022/01/26 09:49:36;;;;;;;;;;;4.10;99.90;;;;;;8393732;28;19970;-72
2022/01/26 09:53:38;;;;;;;;;;;4.10;99.90;;;;;;8388658;28;19928;-71
2022/01/26 09:57:41;;;;;;;;;;;4.10;99.90;;;;;;8386790;28;19979;-71
2022/01/26 10:01:45;;;;;;;;;;;4.10;99.90;;;;;;8365098;28;20075;-72
2022/01/26 10:05:49;;;;;;;;;;;4.10;99.90;;;;;;8387701;28;19930;-71
2022/01/26 10:10:28;;;;;;;;;;;4.10;99.90;;;;;;8395046;28;20399;-71
2022/01/26 10:18:49;;;;;;;;;;;4.20;99.90;;;;;;8379637;28;19978;-71
2022/01/26 10:22:50;;;;;;;;;;;4.20;99.90;;;;;;8373289;28;20400;-71
2022/01/26 10:26:56;;;;;;;;;;;4.30;99.90;;;;;;8371678;28;20452;-71
2022/01/26 10:30:58;;;;;;;;;;;4.30;99.90;;;;;;8392032;28;20019;-71
2022/01/26 10:35:03;;;;;;;;;;;4.40;99.90;;;;;;8387153;28;19967;-71
2022/01/26 10:39:23;;;;;;;;;;;4.40;99.90;;;;;;8386287;28;19925;-71
2022/01/26 10:43:30;;;;;;;;;;;4.40;99.90;;;;;;8387647;28;21320;-71
2022/01/26 10:47:39;;;;;;;;;;;4.40;99.90;;;;;;8386946;28;20044;-71
2022/01/26 10:51:54;;;;;;;;;;;4.50;99.90;;;;;;8380032;28;19970;-71
2022/01/26 10:55:56;;;;;;;;;;;4.50;99.90;;;;;;8384817;28;19963;-71
2022/01/26 11:00:07;;;;;;;;;;;4.50;99.90;;;;;;8368484;28;20299;-71
2022/01/26 11:04:09;;;;;;;;;;;4.50;99.90;;;;;;8394755;28;20014;-72
2022/01/26 11:08:11;;;;;;;;;;;4.60;99.90;;;;;;8371101;28;20411;-71
2022/01/26 11:12:14;;;;;;;;;;;4.60;99.90;;;;;;8389351;28;19932;-71
2022/01/26 11:16:18;;;;;;;;;;;4.60;99.90;;;;;;8385186;28;20714;-71
2022/01/26 11:20:31;;;;;;;;;;;4.60;99.90;;;;;;8375018;28;19928;-71
2022/01/26 11:24:40;;;;;;;;;;;4.70;99.90;;;;;;8400546;28;19940;-72
2022/01/26 11:28:46;;;;;;;;;;;4.70;99.90;;;;;;8383655;28;20372;-71
2022/01/26 11:32:51;;;;;;;;;;;4.70;99.90;;;;;;8370251;28;19931;-71
2022/01/26 11:36:56;;;;;;;;;;;4.80;99.90;;;;;;8379874;28;19928;-71
2022/01/26 11:45:24;;;;;;;;;;;4.80;99.90;;;;;;8392157;28;19975;-71
2022/01/26 11:49:36;;;;;;;;;;;4.80;99.90;;;;;;8373359;28;19939;-71
2022/01/26 11:53:38;;;;;;;;;;;4.90;99.90;;;;;;8380903;28;19928;-72
2022/01/26 11:57:44;;;;;;;;;;;4.90;99.90;;;;;;8380504;28;20419;-71
2022/01/26 12:01:54;;;;;;;;;;;5.00;99.90;;;;;;8363559;28;20291;-72
2022/01/26 12:05:58;;;;;;;;;;;5.00;99.90;;;;;;8359070;28;19932;-71
2022/01/26 12:10:03;;;;;;;;;;;5.10;99.90;;;;;;8388872;28;19947;-72
2022/01/26 12:14:07;;;;;;;;;;;5.10;99.90;;;;;;8365325;28;19963;-72
2022/01/26 12:44:17;;;;;;;;;;;5.40;99.90;;;;;;8380842;28;20003;-72
2022/01/26 12:48:19;;;;;;;;;;;5.40;99.90;;;;;;8385966;28;20390;-72
2022/01/26 12:52:21;;;;;;;;;;;5.40;99.90;;;;;;8386227;28;20392;-72
2022/01/26 12:56:24;;;;;;;;;;;5.40;99.90;;;;;;8380356;28;19929;-71
2022/01/26 13:00:36;;;;;;;;;;;5.40;99.90;;;;;;8380025;28;19932;-71
2022/01/26 13:04:42;;;;;;;;;;;5.40;99.90;;;;;;8380697;28;20392;-72
2022/01/26 13:08:50;;;;;;;;;;;5.40;99.90;;;;;;8394169;28;19940;-71
2022/01/26 13:12:51;;;;;;;;;;;5.40;99.90;;;;;;8379060;28;20011;-71
2022/01/26 13:21:33;;;;;;;;;;;5.40;99.90;;;;;;8382003;28;19932;-72
2022/01/26 13:38:25;;;;;;;;;;;5.60;99.90;;;;;;8394848;28;19990;-71
2022/01/26 13:59:00;;;;;;;;;;;5.60;99.90;;;;;;8383725;28;20401;-71
2022/01/26 14:03:10;;;;;;;;;;;5.60;99.90;;;;;;8379441;28;20351;-71
2022/01/26 14:07:12;;;;;;;;;;;5.70;99.90;;;;;;8368407;28;19924;-71
2022/01/26 14:11:14;;;;;;;;;;;5.70;99.90;;;;;;8372820;28;19928;-72
2022/01/26 14:15:26;;;;;;;;;;;5.70;99.90;;;;;;8390689;28;20376;-72
2022/01/26 14:19:55;;;;;;;;;;;5.70;99.90;;;;;;8374896;28;19932;-72
2022/01/26 14:24:11;;;;;;;;;;;5.70;99.90;;;;;;8387936;28;19947;-71
2022/01/26 14:28:16;;;;;;;;;;;5.70;99.90;;;;;;8372044;28;19925;-72
2022/01/26 14:32:59;;;;;;;;;;;5.80;99.90;;;;;;8391073;28;19924;-71
2022/01/26 14:54:19;;;;;;;;;;;5.60;99.90;;;;;;8382256;28;19924;-71
2022/01/26 15:21:16;;;;;;;;;;;5.40;99.90;;;;;;8384178;28;20357;-71
2022/01/26 15:50:41;;;;;;;;;;;5.20;99.90;;;;;;8386958;28;19924;-71
2022/01/26 16:04:16;;;;;;;;;;;5.10;99.90;;;;;;8354739;28;20053;-71
2022/01/26 16:17:06;;;;;;;;;;;5.00;99.90;;;;;;8357729;28;19933;-72
2022/01/26 16:21:11;;;;;;;;;;;5.00;99.90;;;;;;8362308;28;19935;-71
2022/01/26 17:26:43;;;;;;;;;;;4.80;99.90;;;;;;8358275;28;19924;-72
2022/01/26 18:26:51;;;;;;;;;;;4.80;99.90;;;;;;8362410;28;20117;-71
2022/01/26 18:52:18;;;;;;;;;;;4.80;99.90;;;;;;8364994;28;19980;-71
2022/01/26 18:56:20;;;;;;;;;;;4.80;99.90;;;;;;8370011;28;20396;-71
2022/01/26 19:00:21;;;;;;;;;;;4.80;99.90;;;;;;8357952;28;20311;-72
2022/01/26 19:04:35;;;;;;;;;;;4.80;99.90;;;;;;8353523;28;20372;-71
2022/01/26 19:08:39;;;;;;;;;;;4.80;99.90;;;;;;8337738;28;20043;-72
2022/01/26 19:12:42;;;;;;;;;;;4.80;99.90;;;;;;8340314;28;19939;-72
2022/01/26 19:16:50;;;;;;;;;;;4.80;99.90;;;;;;8347921;28;19932;-72
2022/01/26 19:21:10;;;;;;;;;;;4.80;99.90;;;;;;8340790;28;19968;-72
2022/01/26 19:25:27;;;;;;;;;;;4.80;99.90;;;;;;8337792;28;19975;-72
2022/01/26 19:50:48;;;;;;;;;;;4.70;99.90;;;;;;8358436;28;19983;-72
2022/01/26 19:54:51;;;;;;;;;;;4.70;99.90;;;;;;8336879;28;20332;-72
2022/01/26 19:58:53;;;;;;;;;;;4.70;99.90;;;;;;8355230;28;19936;-72
2022/01/26 20:02:54;;;;;;;;;;;4.60;99.90;;;;;;8352079;28;20216;-72
2022/01/26 20:07:01;;;;;;;;;;;4.60;99.90;;;;;;8354924;28;19925;-71
2022/01/26 20:11:07;;;;;;;;;;;4.70;99.90;;;;;;8336605;28;19972;-72
2022/01/26 20:15:09;;;;;;;;;;;4.60;99.90;;;;;;8358507;28;19983;-71
2022/01/26 20:19:11;;;;;;;;;;;4.60;99.90;;;;;;8348914;28;19967;-72
2022/01/26 20:23:14;;;;;;;;;;;4.70;99.90;;;;;;8359702;28;19936;-71
2022/01/26 20:27:19;;;;;;;;;;;4.60;99.90;;;;;;8363314;28;19939;-71
2022/01/26 20:31:24;;;;;;;;;;;4.60;99.90;;;;;;8343358;28;19964;-71
2022/01/26 20:35:25;;;;;;;;;;;4.70;99.90;;;;;;8359972;28;19932;-71
2022/01/26 20:39:27;;;;;;;;;;;4.70;99.90;;;;;;8369597;28;19978;-71
2022/01/26 20:43:29;;;;;;;;;;;4.70;99.90;;;;;;8370550;28;19968;-71
2022/01/26 20:47:31;;;;;;;;;;;4.70;99.90;;;;;;8357919;28;19985;-71
2022/01/26 20:51:34;;;;;;;;;;;4.70;99.90;;;;;;8374127;28;19960;-71
2022/01/26 20:55:35;;;;;;;;;;;4.70;99.90;;;;;;8359291;28;19936;-71
2022/01/26 20:59:37;;;;;;;;;;;4.70;99.90;;;;;;8346103;28;19936;-71
2022/01/26 21:03:39;;;;;;;;;;;4.70;99.90;;;;;;8351799;28;19955;-71
2022/01/26 21:07:41;;;;;;;;;;;4.80;99.90;;;;;;8361014;28;19928;-71
2022/01/26 21:11:42;;;;;;;;;;;4.80;99.90;;;;;;8344176;28;19925;-72
2022/01/26 21:15:44;;;;;;;;;;;4.80;99.90;;;;;;8360363;28;20276;-71
2022/01/26 21:19:45;;;;;;;;;;;4.80;99.90;;;;;;8345638;28;20011;-71
2022/01/26 21:23:47;;;;;;;;;;;4.80;99.90;;;;;;8340759;28;20015;-71
2022/01/26 21:27:49;;;;;;;;;;;4.90;99.90;;;;;;8345178;28;20079;-71
2022/01/26 21:31:51;;;;;;;;;;;4.90;99.90;;;;;;8360552;28;19974;-71
2022/01/26 21:35:52;;;;;;;;;;;4.90;99.90;;;;;;8359789;28;19929;-71
2022/01/26 21:39:54;;;;;;;;;;;4.90;99.90;;;;;;8360459;28;19960;-71
2022/01/26 21:43:55;;;;;;;;;;;4.90;99.90;;;;;;8357401;28;20349;-71
2022/01/26 21:47:57;;;;;;;;;;;4.90;99.90;;;;;;8360536;28;19951;-71
2022/01/26 21:51:59;;;;;;;;;;;5.00;99.90;;;;;;8359642;28;20045;-71
2022/01/26 21:56:01;;;;;;;;;;;5.00;99.90;;;;;;8374748;28;19971;-71
2022/01/26 22:00:04;;;;;;;;;;;5.00;99.90;;;;;;8358847;28;20594;-71
2022/01/26 22:04:06;;;;;;;;;;;5.10;99.90;;;;;;8391157;28;19972;-72
2022/01/26 22:08:08;;;;;;;;;;;5.10;99.90;;;;;;8387993;28;19976;-71
2022/01/26 22:12:10;;;;;;;;;;;5.20;99.90;;;;;;8402325;28;20367;-71
2022/01/26 22:16:11;;;;;;;;;;;5.20;99.90;;;;;;8362098;28;19967;-72
2022/01/26 22:20:13;;;;;;;;;;;5.20;99.90;;;;;;8387430;28;19924;-72
2022/01/26 22:24:15;;;;;;;;;;;5.20;99.90;;;;;;8372494;28;20373;-72
2022/01/26 22:28:18;;;;;;;;;;;5.20;99.90;;;;;;8389887;28;19936;-71
2022/01/26 22:32:20;;;;;;;;;;;5.20;99.90;;;;;;8392628;28;20372;-71
2022/01/26 22:36:22;;;;;;;;;;;5.20;99.90;;;;;;8396785;28;19975;-72
2022/01/26 22:40:28;;;;;;;;;;;5.30;99.90;;;;;;8369180;28;20063;-71
2022/01/26 22:44:42;;;;;;;;;;;5.20;99.90;;;;;;8388245;28;19928;-72
2022/01/26 22:48:43;;;;;;;;;;;5.30;99.90;;;;;;8380478;28;20344;-71
2022/01/26 22:52:45;;;;;;;;;;;5.20;99.90;;;;;;8391844;28;19960;-71
2022/01/26 22:56:46;;;;;;;;;;;5.20;99.90;;;;;;8391158;28;19925;-71
2022/01/26 23:09:24;;;;;;;;;;;5.20;99.90;;;;;;8334508;28;19983;-71
2022/01/26 23:13:25;;;;;;;;;;;5.20;99.90;;;;;;8399719;28;20299;-71
2022/01/26 23:17:47;;;;;;;;;;;5.20;99.90;;;;;;8391949;28;20343;-71
2022/01/26 23:21:48;;;;;;;;;;;5.10;99.90;;;;;;8368379;28;19979;-71
2022/01/26 23:26:02;;;;;;;;;;;5.10;99.90;;;;;;8396662;28;19924;-71
2022/01/26 23:30:22;;;;;;;;;;;5.10;99.90;;;;;;8383204;28;19928;-71
2022/01/26 23:34:52;;;;;;;;;;;5.10;99.90;;;;;;8390603;28;19963;-71
2022/01/26 23:39:16;;;;;;;;;;;5.10;99.90;;;;;;8398062;28;19975;-71
